createdAt,value
2019-01-13T00:00:48.901Z,83.63
2019-01-13T00:03:18.805Z,84.42
2019-01-13T00:05:48.842Z,84.55
2019-01-13T00:08:18.864Z,84.81
2019-01-13T00:10:48.899Z,84.94
2019-01-13T00:13:18.888Z,84.18
2019-01-13T00:15:48.878Z,85.13
2019-01-13T00:18:18.742Z,85.05
2019-01-13T00:20:48.746Z,85.21
2019-01-13T00:23:18.684Z,84.25
2019-01-13T00:25:48.655Z,85.15
2019-01-13T00:28:18.592Z,84.67
2019-01-13T00:30:48.593Z,84.06
2019-01-13T00:33:18.532Z,84.18
2019-01-13T00:35:48.503Z,83.31
2019-01-13T00:38:18.511Z,83.45
2019-01-13T00:40:48.458Z,83.62
2019-01-13T00:43:18.446Z,83.46
2019-01-13T00:45:48.543Z,83.03
2019-01-13T00:48:18.518Z,83.61
2019-01-13T00:50:49.351Z,83.11
2019-01-13T00:53:19.354Z,83.13
2019-01-13T00:55:49.326Z,83.41
2019-01-13T00:58:19.295Z,83.96
2019-01-13T01:00:49.442Z,84.17
2019-01-13T01:03:19.443Z,84.47
2019-01-13T01:05:50.555Z,83.92
2019-01-13T01:08:20.528Z,83.35
2019-01-13T01:10:50.491Z,83.67
2019-01-13T01:13:20.427Z,83.38
2019-01-13T01:15:50.331Z,83.18
2019-01-13T01:18:23.107Z,82.78
2019-01-13T01:20:53.005Z,82.69
2019-01-13T01:23:23.156Z,82.83
2019-01-13T01:25:53.169Z,82.41
2019-01-13T01:28:23.218Z,82.64
2019-01-13T01:30:53.202Z,82.91
2019-01-13T01:33:26.056Z,82.61
2019-01-13T01:35:56.572Z,82.61
2019-01-13T01:38:28.097Z,81.86
2019-01-13T01:40:59.050Z,82.54
2019-01-13T01:43:28.946Z,82.16
2019-01-13T01:45:58.842Z,82.50
2019-01-13T01:48:28.818Z,82.36
2019-01-13T01:50:58.759Z,83.22
2019-01-13T01:53:28.758Z,82.77
2019-01-13T01:55:58.844Z,82.74
2019-01-13T01:58:28.791Z,82.86
2019-01-13T02:00:58.843Z,82.52
2019-01-13T02:03:28.871Z,82.10
2019-01-13T02:05:58.932Z,82.86
2019-01-13T02:08:28.875Z,82.81
2019-01-13T02:10:58.878Z,82.96
2019-01-13T02:13:28.809Z,82.55
2019-01-13T02:15:58.795Z,82.46
2019-01-13T02:18:28.738Z,81.90
2019-01-13T02:20:58.819Z,81.78
2019-01-13T02:23:28.760Z,81.84
2019-01-13T02:25:58.676Z,80.90
2019-01-13T02:28:28.705Z,82.24
2019-01-13T02:30:58.774Z,81.68
2019-01-13T02:33:28.733Z,80.29
2019-01-13T02:35:58.803Z,79.34
2019-01-13T02:38:30.206Z,79.46
2019-01-13T02:41:00.119Z,80.35
2019-01-13T02:43:30.180Z,81.22
2019-01-13T02:46:00.192Z,81.29
2019-01-13T02:48:30.026Z,81.39
2019-01-13T02:51:00.196Z,81.78
2019-01-13T02:53:30.111Z,81.27
2019-01-13T02:56:00.045Z,81.95
2019-01-13T02:58:29.878Z,81.23
2019-01-13T03:00:59.889Z,81.56
2019-01-13T03:03:29.875Z,81.17
2019-01-13T03:06:00.207Z,81.72
2019-01-13T03:08:30.229Z,81.17
2019-01-13T03:11:01.618Z,80.97
2019-01-13T03:13:31.603Z,80.11
2019-01-13T03:16:01.632Z,80.30
2019-01-13T03:18:31.581Z,80.11
2019-01-13T03:21:01.473Z,80.54
2019-01-13T03:23:31.516Z,81.04
2019-01-13T03:26:01.504Z,80.10
2019-01-13T03:28:31.518Z,79.90
2019-01-13T03:31:11.272Z,80.80
2019-01-13T03:33:34.305Z,81.13
2019-01-13T03:36:04.342Z,80.72
2019-01-13T03:38:34.515Z,80.42
2019-01-13T03:41:04.537Z,80.03
2019-01-13T03:43:34.560Z,80.29
2019-01-13T03:46:04.816Z,80.93
2019-01-13T03:48:34.900Z,81.72
2019-01-13T03:51:04.889Z,82.02
2019-01-13T03:53:34.835Z,81.93
2019-01-13T03:56:04.843Z,81.07
2019-01-13T03:58:34.662Z,80.78
2019-01-13T04:01:04.677Z,80.12
2019-01-13T04:03:34.572Z,80.71
2019-01-13T04:06:04.594Z,80.58
2019-01-13T04:08:34.494Z,79.82
2019-01-13T04:11:04.443Z,79.98
2019-01-13T04:13:34.329Z,79.61
2019-01-13T04:16:04.775Z,79.48
2019-01-13T04:18:34.748Z,80.01
2019-01-13T04:21:04.937Z,79.69
2019-01-13T04:23:34.976Z,79.27
2019-01-13T04:26:04.974Z,79.71
2019-01-13T04:28:34.993Z,79.56
2019-01-13T04:31:04.989Z,79.38
2019-01-13T04:33:34.924Z,78.69
2019-01-13T04:36:05.238Z,78.89
2019-01-13T04:38:35.136Z,78.90
2019-01-13T04:41:05.101Z,78.26
2019-01-13T04:43:35.096Z,79.05
2019-01-13T04:46:05.081Z,78.66
2019-01-13T04:48:35.260Z,78.24
2019-01-13T04:51:05.294Z,78.78
2019-01-13T04:53:35.336Z,78.44
2019-01-13T04:56:05.669Z,77.39
2019-01-13T04:58:35.522Z,76.84
2019-01-13T05:01:05.646Z,77.28
2019-01-13T05:03:35.690Z,77.42
2019-01-13T05:06:05.704Z,76.98
2019-01-13T05:08:35.617Z,76.62
2019-01-13T05:11:05.639Z,77.74
2019-01-13T05:13:36.459Z,76.38
2019-01-13T05:16:06.602Z,75.90
2019-01-13T05:18:36.518Z,74.88
2019-01-13T05:21:06.388Z,75.98
2019-01-13T05:23:36.404Z,74.33
2019-01-13T05:26:06.312Z,75.18
2019-01-13T05:28:36.248Z,75.64
2019-01-13T05:31:06.232Z,75.79
2019-01-13T05:33:36.169Z,75.56
2019-01-13T05:36:06.234Z,76.67
2019-01-13T05:38:36.108Z,75.80
2019-01-13T05:41:06.201Z,75.44
2019-01-13T05:43:36.218Z,75.07
2019-01-13T05:46:06.047Z,76.01
2019-01-13T05:48:35.947Z,74.49
2019-01-13T05:51:05.890Z,74.77
2019-01-13T05:53:35.860Z,74.53
2019-01-13T05:56:05.875Z,74.90
2019-01-13T05:58:35.758Z,73.77
2019-01-13T06:01:05.740Z,74.82
2019-01-13T06:03:35.749Z,76.54
2019-01-13T06:06:05.755Z,75.18
2019-01-13T06:08:35.661Z,75.52
2019-01-13T06:11:05.709Z,75.98
2019-01-13T06:13:35.523Z,74.95
2019-01-13T06:16:05.540Z,73.25
2019-01-13T06:18:35.406Z,73.39
2019-01-13T06:23:40.887Z,74.22
2019-01-13T06:26:10.901Z,74.17
2019-01-13T06:28:40.792Z,72.49
2019-01-13T06:31:10.764Z,72.77
2019-01-13T06:33:40.781Z,73.11
2019-01-13T06:36:10.742Z,71.84
2019-01-13T06:38:40.792Z,73.06
2019-01-13T06:41:10.686Z,73.81
2019-01-13T06:43:40.620Z,72.23
2019-01-13T06:46:10.718Z,73.72
2019-01-13T06:48:40.617Z,74.91
2019-01-13T06:51:10.530Z,73.49
2019-01-13T06:53:40.476Z,74.85
2019-01-13T06:56:10.407Z,74.90
2019-01-13T06:58:40.267Z,74.28
2019-01-13T07:01:10.351Z,75.27
2019-01-13T07:03:40.351Z,75.53
2019-01-13T07:06:10.385Z,76.07
2019-01-13T07:08:40.360Z,76.13
2019-01-13T07:11:10.415Z,75.41
2019-01-13T07:13:40.347Z,75.55
2019-01-13T07:16:10.364Z,75.60
2019-01-13T07:18:40.446Z,73.57
2019-01-13T07:21:10.353Z,73.45
2019-01-13T07:23:59.459Z,75.64
2019-01-13T07:26:29.472Z,75.44
2019-01-13T07:28:59.370Z,74.60
2019-01-13T07:31:29.370Z,74.51
2019-01-13T07:33:59.465Z,72.27
2019-01-13T07:36:29.554Z,74.58
2019-01-13T07:38:59.478Z,73.75
2019-01-13T07:41:29.390Z,73.89
2019-01-13T07:43:59.562Z,72.49
2019-01-13T07:46:29.511Z,70.98
2019-01-13T07:48:59.504Z,71.76
2019-01-13T07:51:29.409Z,73.09
2019-01-13T07:53:59.349Z,72.04
2019-01-13T07:56:29.772Z,71.42
2019-01-13T07:58:59.646Z,71.93
2019-01-13T08:01:29.567Z,73.77
2019-01-13T08:03:59.525Z,72.49
2019-01-13T08:06:29.526Z,72.45
2019-01-13T08:08:59.353Z,71.61
2019-01-13T08:11:29.389Z,71.31
2019-01-13T08:13:59.300Z,71.91
2019-01-13T08:16:29.435Z,69.93
2019-01-13T08:18:59.586Z,72.55
2019-01-13T08:21:29.734Z,72.09
2019-01-13T08:23:59.619Z,73.66
2019-01-13T08:26:29.511Z,70.46
2019-01-13T08:28:59.526Z,72.27
2019-01-13T08:31:29.519Z,70.68
2019-01-13T08:33:59.419Z,72.22
2019-01-13T08:36:30.471Z,72.99
2019-01-13T08:39:00.388Z,71.13
2019-01-13T08:41:30.285Z,68.90
2019-01-13T08:44:00.189Z,71.42
2019-01-13T08:46:30.154Z,70.79
2019-01-13T08:49:00.109Z,71.19
2019-01-13T08:51:31.685Z,72.49
2019-01-13T08:54:01.668Z,69.13
2019-01-13T08:56:31.685Z,67.41
2019-01-13T08:59:01.668Z,69.93
2019-01-13T09:01:31.637Z,68.97
2019-01-13T09:04:01.591Z,71.47
2019-01-13T09:06:31.610Z,69.46
2019-01-13T09:09:01.477Z,68.69
2019-01-13T09:11:32.517Z,70.12
2019-01-13T09:14:02.512Z,67.72
2019-01-13T09:16:32.377Z,69.41
2019-01-13T09:19:02.495Z,68.37
2019-01-13T09:21:32.550Z,68.55
2019-01-13T09:24:02.504Z,70.11
2019-01-13T09:26:32.458Z,68.97
2019-01-13T09:29:02.403Z,70.13
2019-01-13T09:31:32.369Z,68.84
2019-01-13T09:34:02.214Z,68.91
2019-01-13T09:36:32.290Z,68.74
2019-01-13T09:39:02.195Z,68.25
2019-01-13T09:41:33.259Z,68.33
2019-01-13T09:44:03.247Z,68.52
2019-01-13T09:46:33.236Z,66.52
2019-01-13T09:49:03.146Z,67.34
2019-01-13T09:51:33.044Z,67.42
2019-01-13T09:54:02.882Z,68.42
2019-01-13T09:56:32.918Z,68.11
2019-01-13T09:59:02.919Z,66.35
2019-01-13T10:01:32.880Z,65.87
2019-01-13T10:04:02.945Z,65.27
2019-01-13T10:06:32.952Z,66.44
2019-01-13T10:09:03.113Z,66.73
2019-01-13T10:11:32.956Z,69.36
2019-01-13T10:14:02.917Z,68.65
2019-01-13T10:16:32.892Z,69.71
2019-01-13T10:19:02.917Z,68.13
2019-01-13T10:21:32.733Z,67.81
2019-01-13T10:24:02.743Z,70.71
2019-01-13T10:26:33.706Z,68.81
2019-01-13T10:29:03.821Z,68.73
2019-01-13T10:31:33.764Z,67.59
2019-01-13T10:34:03.769Z,68.47
2019-01-13T10:36:33.741Z,70.33
2019-01-13T10:39:05.952Z,69.63
2019-01-13T10:41:35.982Z,71.75
2019-01-13T10:44:06.023Z,72.50
2019-01-13T10:46:36.073Z,73.33
2019-01-13T10:49:06.032Z,72.86
2019-01-13T10:51:36.103Z,71.52
2019-01-13T10:54:09.274Z,71.33
2019-01-13T10:56:37.850Z,71.87
2019-01-13T10:59:07.842Z,72.84
2019-01-13T11:01:37.832Z,71.80
2019-01-13T11:04:07.821Z,71.83
2019-01-13T11:06:38.374Z,74.33
2019-01-13T11:09:13.485Z,73.09
2019-01-13T11:11:43.492Z,73.79
2019-01-13T11:14:13.323Z,72.04
2019-01-13T11:16:43.340Z,71.70
2019-01-13T11:19:13.350Z,72.52
2019-01-13T11:21:43.394Z,73.36
2019-01-13T11:24:13.264Z,72.66
2019-01-13T11:26:43.255Z,73.64
2019-01-13T11:29:13.268Z,72.90
2019-01-13T11:31:43.255Z,74.72
2019-01-13T11:34:13.285Z,74.56
2019-01-13T11:36:43.264Z,74.14
2019-01-13T11:39:13.313Z,75.62
2019-01-13T11:41:43.416Z,75.53
2019-01-13T11:44:13.384Z,75.67
2019-01-13T11:46:43.382Z,76.53
2019-01-13T11:49:13.348Z,76.87
2019-01-13T11:51:43.393Z,76.49
2019-01-13T11:54:13.297Z,75.37
2019-01-13T11:56:43.338Z,76.05
2019-01-13T11:59:13.291Z,77.08
2019-01-13T12:01:43.299Z,77.10
2019-01-13T12:04:13.309Z,76.78
2019-01-13T12:06:43.266Z,77.71
2019-01-13T12:09:13.298Z,77.49
2019-01-13T12:11:43.422Z,75.74
2019-01-13T12:14:13.521Z,74.73
2019-01-13T12:16:43.495Z,80.21
2019-01-13T12:19:13.427Z,80.36
2019-01-13T12:21:43.415Z,79.99
2019-01-13T12:24:13.574Z,79.49
2019-01-13T12:26:43.548Z,80.35
2019-01-13T12:29:14.152Z,79.87
2019-01-13T12:31:44.139Z,80.19
2019-01-13T12:34:14.088Z,80.55
2019-01-13T12:36:44.031Z,79.80
2019-01-13T12:39:14.888Z,79.00
2019-01-13T12:41:44.860Z,78.99
2019-01-13T12:44:15.004Z,79.91
2019-01-13T12:46:45.065Z,79.68
2019-01-13T12:49:15.103Z,80.23
2019-01-13T12:51:46.523Z,80.37
2019-01-13T12:54:16.441Z,79.67
2019-01-13T12:56:46.302Z,80.06
2019-01-13T12:59:16.294Z,77.09
2019-01-13T13:01:46.334Z,79.61
2019-01-13T13:04:16.698Z,79.39
2019-01-13T13:06:46.725Z,78.72
2019-01-13T13:09:16.663Z,79.31
2019-01-13T13:11:46.683Z,79.28
2019-01-13T13:14:16.680Z,78.32
2019-01-13T13:16:46.650Z,76.72
2019-01-13T13:19:16.558Z,77.25
2019-01-13T13:21:46.601Z,77.36
2019-01-13T13:24:16.615Z,77.35
2019-01-13T13:26:46.648Z,78.37
2019-01-13T13:29:16.670Z,77.94
2019-01-13T13:31:46.573Z,75.89
2019-01-13T13:34:16.658Z,77.14
2019-01-13T13:36:46.735Z,78.22
2019-01-13T13:39:16.705Z,76.53
2019-01-13T13:41:46.716Z,76.71
2019-01-13T13:44:16.723Z,76.28
2019-01-13T13:46:46.695Z,76.60
2019-01-13T13:49:16.671Z,75.99
2019-01-13T13:51:46.696Z,78.03
2019-01-13T13:54:16.684Z,78.15
2019-01-13T13:56:46.628Z,77.09
2019-01-13T13:59:16.564Z,76.77
2019-01-13T14:01:46.593Z,77.32
2019-01-13T14:04:16.570Z,78.42
2019-01-13T14:06:46.586Z,78.23
2019-01-13T14:09:16.484Z,77.68
2019-01-13T14:11:46.506Z,76.70
2019-01-13T14:14:16.415Z,78.70
2019-01-13T14:16:46.424Z,77.73
2019-01-13T14:19:16.636Z,78.23
2019-01-13T14:21:46.570Z,77.89
2019-01-13T14:24:16.529Z,78.36
2019-01-13T14:26:46.494Z,78.02
2019-01-13T14:29:16.554Z,76.78
2019-01-13T14:31:46.452Z,76.62
2019-01-13T14:34:16.412Z,75.32
2019-01-13T14:36:46.422Z,73.78
2019-01-13T14:39:16.612Z,76.11
2019-01-13T14:41:46.547Z,75.21
2019-01-13T14:44:16.605Z,75.87
2019-01-13T14:46:46.659Z,74.66
2019-01-13T14:49:16.698Z,75.45
2019-01-13T14:51:46.673Z,74.75
2019-01-13T14:54:16.598Z,74.86
2019-01-13T14:56:46.629Z,75.93
2019-01-13T14:59:17.445Z,76.77
2019-01-13T15:01:48.443Z,74.52
2019-01-13T15:04:18.407Z,73.76
2019-01-13T15:06:48.365Z,75.28
2019-01-13T15:09:18.352Z,75.36
2019-01-13T15:11:48.416Z,74.07
2019-01-13T15:14:18.312Z,73.36
2019-01-13T15:16:48.351Z,74.26
2019-01-13T15:19:18.505Z,74.19
2019-01-13T15:21:48.444Z,73.78
2019-01-13T15:24:18.410Z,74.27
2019-01-13T15:26:49.139Z,75.15
2019-01-13T15:29:19.035Z,74.65
2019-01-13T15:31:49.051Z,74.84
2019-01-13T15:34:18.933Z,75.52
2019-01-13T15:36:48.897Z,73.25
2019-01-13T15:39:18.780Z,75.91
2019-01-13T15:41:48.698Z,76.03
2019-01-13T15:44:18.729Z,74.55
2019-01-13T15:46:49.590Z,75.97
2019-01-13T15:49:19.706Z,76.01
2019-01-13T15:51:50.213Z,76.42
2019-01-13T15:54:20.269Z,76.84
2019-01-13T15:56:50.283Z,76.23
2019-01-13T15:59:20.251Z,75.59
2019-01-13T16:01:50.334Z,77.30
2019-01-13T16:04:20.394Z,77.68
2019-01-13T16:06:50.290Z,77.11
2019-01-13T16:09:20.217Z,77.35
2019-01-13T16:11:50.265Z,76.84
2019-01-13T16:14:20.200Z,76.19
2019-01-13T16:16:50.224Z,74.77
2019-01-13T16:19:20.138Z,74.33
2019-01-13T16:21:50.023Z,72.98
2019-01-13T16:24:20.035Z,73.22
2019-01-13T16:26:50.102Z,73.83
2019-01-13T16:29:20.099Z,72.84
2019-01-13T16:31:50.044Z,73.82
2019-01-13T16:34:21.647Z,74.23
2019-01-13T16:36:51.771Z,73.42
2019-01-13T16:39:21.627Z,74.45
2019-01-13T16:41:51.508Z,73.64
2019-01-13T16:44:21.567Z,73.09
2019-01-13T16:46:51.495Z,73.88
2019-01-13T16:49:21.492Z,74.43
2019-01-13T16:51:51.410Z,73.84
2019-01-13T16:54:23.190Z,73.33
2019-01-13T16:56:53.249Z,73.15
2019-01-13T16:59:23.288Z,75.15
2019-01-13T17:01:53.221Z,74.43
2019-01-13T17:04:28.756Z,73.31
2019-01-13T17:06:57.703Z,74.87
2019-01-13T17:09:27.796Z,73.39
2019-01-13T17:11:57.650Z,74.44
2019-01-13T17:14:27.550Z,75.34
2019-01-13T17:16:57.537Z,74.85
2019-01-13T17:19:28.347Z,75.71
2019-01-13T17:21:58.340Z,75.84
2019-01-13T17:24:29.473Z,73.58
2019-01-13T17:26:59.504Z,75.30
2019-01-13T17:29:29.577Z,72.31
2019-01-13T17:31:59.563Z,72.74
2019-01-13T17:34:35.649Z,73.37
2019-01-13T17:37:02.153Z,73.86
2019-01-13T17:39:32.158Z,74.16
2019-01-13T17:42:02.225Z,72.65
2019-01-13T17:44:32.882Z,72.07
2019-01-13T17:47:03.233Z,72.38
2019-01-13T17:49:33.231Z,73.27
2019-01-13T17:52:03.285Z,72.92
2019-01-13T17:54:33.198Z,72.54
2019-01-13T17:57:03.203Z,72.02
2019-01-13T17:59:33.177Z,72.26
2019-01-13T18:02:03.108Z,72.60
2019-01-13T18:04:33.158Z,70.75
2019-01-13T18:07:03.209Z,71.37
2019-01-13T18:09:33.154Z,70.64
2019-01-13T18:12:03.152Z,72.35
2019-01-13T18:14:33.213Z,70.87
2019-01-13T18:17:06.498Z,70.35
2019-01-13T18:19:34.710Z,71.16
2019-01-13T18:22:04.772Z,69.44
2019-01-13T18:24:34.689Z,70.23
2019-01-13T18:27:04.721Z,70.41
2019-01-13T18:29:34.648Z,69.47
2019-01-13T18:32:04.650Z,68.91
2019-01-13T18:34:34.562Z,69.70
2019-01-13T18:37:05.369Z,70.21
2019-01-13T18:39:35.443Z,69.93
2019-01-13T18:42:06.571Z,70.19
2019-01-13T18:44:36.538Z,70.34
2019-01-13T18:47:06.500Z,70.04
2019-01-13T18:49:36.515Z,69.56
2019-01-13T18:52:06.454Z,69.06
2019-01-13T18:54:36.335Z,68.17
2019-01-13T18:57:06.314Z,67.87
2019-01-13T18:59:36.254Z,68.74
2019-01-13T19:02:06.364Z,69.03
2019-01-13T19:04:36.397Z,68.23
2019-01-13T19:07:06.311Z,68.22
2019-01-13T19:09:36.381Z,69.50
2019-01-13T19:12:06.336Z,69.28
2019-01-13T19:14:49.633Z,68.65
2019-01-13T19:17:21.935Z,69.53
2019-01-13T19:19:53.940Z,69.69
2019-01-13T19:22:24.979Z,69.08
2019-01-13T19:25:02.349Z,70.94
2019-01-13T19:27:33.360Z,71.63
2019-01-13T19:32:39.486Z,72.53
2019-01-13T19:35:10.989Z,71.24
2019-01-13T19:37:40.917Z,70.35
2019-01-13T19:40:12.874Z,71.67
2019-01-13T19:42:44.036Z,69.87
2019-01-13T19:45:16.091Z,70.60
2019-01-13T19:47:46.184Z,68.49
2019-01-13T19:50:18.486Z,70.34
2019-01-13T19:52:48.466Z,68.11
2019-01-13T19:55:18.779Z,70.02
2019-01-13T19:57:48.862Z,71.79
2019-01-13T20:00:24.570Z,71.58
2019-01-13T20:02:54.518Z,70.48
2019-01-13T20:05:24.476Z,71.04
2019-01-13T20:07:54.562Z,71.54
2019-01-13T20:10:24.565Z,70.20
2019-01-13T20:12:55.797Z,70.41
2019-01-13T20:15:25.789Z,69.22
2019-01-13T20:17:57.230Z,71.39
2019-01-13T20:20:28.196Z,71.82
2019-01-13T20:22:58.240Z,71.65
2019-01-13T20:25:28.235Z,72.21
2019-01-13T20:27:58.195Z,74.49
2019-01-13T20:30:30.688Z,74.23
2019-01-13T20:33:01.253Z,73.12
2019-01-13T20:35:31.135Z,73.87
2019-01-13T20:38:01.123Z,72.63
2019-01-13T20:40:32.050Z,72.96
2019-01-13T20:43:01.938Z,74.00
2019-01-13T20:45:34.644Z,72.65
2019-01-13T20:48:04.962Z,69.39
2019-01-13T20:50:35.028Z,71.01
2019-01-13T20:53:05.220Z,69.46
2019-01-13T20:55:35.275Z,70.73
2019-01-13T20:58:05.433Z,69.54
2019-01-13T21:00:35.505Z,73.36
2019-01-13T21:03:05.621Z,74.53
2019-01-13T21:05:35.529Z,74.91
2019-01-13T21:08:05.758Z,72.59
2019-01-13T21:10:35.727Z,74.75
2019-01-13T21:13:06.702Z,76.04
2019-01-13T21:15:37.472Z,76.56
2019-01-13T21:18:07.417Z,76.13
2019-01-13T21:20:38.360Z,76.29
2019-01-13T21:23:08.387Z,76.49
2019-01-13T21:25:38.231Z,77.18
2019-01-13T21:28:08.256Z,75.00
2019-01-13T21:30:38.312Z,73.70
2019-01-13T21:33:08.334Z,75.86
2019-01-13T21:35:38.356Z,76.40
2019-01-13T21:38:08.419Z,76.05
2019-01-13T21:40:38.450Z,76.96
2019-01-13T21:43:08.473Z,72.92
2019-01-13T21:45:38.418Z,75.55
2019-01-13T21:48:08.311Z,74.13
2019-01-13T21:50:38.175Z,73.52
2019-01-13T21:53:08.146Z,74.41
2019-01-13T21:55:38.151Z,75.37
2019-01-13T21:58:08.116Z,75.74
2019-01-13T22:00:38.084Z,75.78
2019-01-13T22:03:07.994Z,75.01
2019-01-13T22:05:41.194Z,72.91
2019-01-13T22:08:09.844Z,74.22
2019-01-13T22:10:39.780Z,73.98
2019-01-13T22:13:09.668Z,73.40
2019-01-13T22:15:39.621Z,73.20
2019-01-13T22:18:09.658Z,73.42
2019-01-13T22:20:40.635Z,73.21
2019-01-13T22:23:10.644Z,73.98
2019-01-13T22:25:40.731Z,74.45
2019-01-13T22:28:10.755Z,73.60
2019-01-13T22:30:40.653Z,74.29
2019-01-13T22:33:10.672Z,74.30
2019-01-13T22:35:40.577Z,74.92
2019-01-13T22:38:12.175Z,75.13
2019-01-13T22:40:42.153Z,75.45
2019-01-13T22:43:12.170Z,77.32
2019-01-13T22:45:42.057Z,77.99
2019-01-13T22:48:12.107Z,78.05
2019-01-13T22:50:41.949Z,77.83
2019-01-13T22:53:12.013Z,75.36
2019-01-13T22:55:41.954Z,69.86
2019-01-13T22:58:11.903Z,71.39
2019-01-13T23:01:06.812Z,70.70
2019-01-13T23:03:39.427Z,71.09
2019-01-13T23:06:09.689Z,69.96
2019-01-13T23:08:39.770Z,66.06
2019-01-13T23:11:09.786Z,68.92
2019-01-13T23:13:39.808Z,69.62
2019-01-13T23:16:09.827Z,68.91
2019-01-13T23:18:39.873Z,68.23
2019-01-13T23:21:09.924Z,68.41
2019-01-13T23:23:39.796Z,66.59
2019-01-13T23:26:09.751Z,68.61
2019-01-13T23:28:40.797Z,68.16
2019-01-13T23:31:10.681Z,68.17
2019-01-13T23:33:40.668Z,67.98
2019-01-13T23:36:10.758Z,67.81
2019-01-13T23:38:40.632Z,67.72
2019-01-13T23:41:10.655Z,66.72
2019-01-13T23:43:40.609Z,65.74
2019-01-13T23:46:10.519Z,67.11
2019-01-13T23:48:41.625Z,65.40
2019-01-13T23:51:11.829Z,66.24
2019-01-13T23:53:41.857Z,66.16
2019-01-13T23:56:11.797Z,64.97
2019-01-13T23:58:41.846Z,66.69
